Golden Lake, Canada
Current Conditions -  °F | °C
As of 10:30 AM on Monday 22 Dec 2014 (Local Time) from CYWA Reporting Station
Overcast Overcast  
Wind Chill:   Ceiling: 300
Heat Index: 18°   Visibility: 3mi
Dew Point: 16°   Wind: 7mph
Humidity: 93%   Direction: 110°ESE
Pressure: 30.36"   Gusts: NA
Location:  45.58°N, 77.25°W
Report Text: CYWA 221530Z AUTO 11006KT 3SM OVC003 M08/M09 A3036
Loading
Personal Weather Stations






























Interactive Weather Map New forecast layout! Learn more

10-Day Weather Forecast

Advertisements
Track Severe Weather on mobile